Time;durP1;ratioP1;P1;durP2;ratioP2;P2;SDS_P1;SDS_P2;PMS_P1;PMS_P2;Temp;Humidity;BMP_temperature;BMP_pressure;BME280_temperature;BME280_humidity;BME280_pressure;Samples;Min_cycle;Max_cycle;Signal;HPM_P1;HPM_P2
2023/02/12 00:03:00;;;;;;;35.30;20.80;;;;;;;5.95;81.80;101770.14;126150;1297;635432;-66
2023/02/12 00:07:02;;;;;;;34.30;21.30;;;;;;;5.94;81.76;101775.11;130916;1280;128820;-66
2023/02/12 00:10:55;;;;;;;35.10;20.70;;;;;;;5.94;81.59;101771.74;126567;1306;116461;-65
2023/02/12 00:14:51;;;;;;;;;;;;;;;;;;;;;
2023/02/12 00:18:53;;;;;;;32.70;20.50;;;;;;;5.94;81.68;101779.36;125911;1317;114836;-65
2023/02/12 00:27:15;;;;;;;28.60;18.60;;;;;;;5.94;81.64;101780.79;125865;1305;636130;-67
2023/02/12 00:31:16;;;;;;;30.20;18.70;;;;;;;5.93;81.77;101787.70;127431;1302;128812;-67
2023/02/12 00:35:18;;;;;;;30.10;19.50;;;;;;;5.91;81.81;101789.32;126919;1303;114957;-66
2023/02/12 00:39:20;;;;;;;28.20;19.10;;;;;;;5.92;81.94;101791.08;122002;1299;5431391;-65
2023/02/12 00:43:13;;;;;;;;;;;;;;;;;;;;;
2023/02/12 00:47:03;;;;;;;;;;;;;;;;;;;;;
2023/02/12 00:55:32;;;;;;;31.80;19.10;;;;;;;5.89;82.00;101786.31;126275;1293;635978;-65
2023/02/12 00:59:38;;;;;;;35.00;19.80;;;;;;;5.85;81.95;101792.35;128381;1274;128809;-65
2023/02/12 01:07:34;;;;;;;35.60;18.30;;;;;;;5.81;82.13;101795.56;123936;1284;5388145;-66
2023/02/12 01:11:39;;;;;;;32.90;18.90;;;;;;;5.79;82.21;101812.61;127174;1286;114884;-66
2023/02/12 01:15:38;;;;;;;;;;;;;;;;;;;;;
2023/02/12 01:24:05;;;;;;;33.70;20.60;;;;;;;5.76;82.53;101836.02;125365;1300;635948;-66
2023/02/12 01:28:08;;;;;;;29.80;19.50;;;;;;;5.76;82.41;101841.16;127899;1275;128957;-66
2023/02/12 01:32:10;;;;;;;37.20;20.80;;;;;;;5.76;82.29;101840.98;126747;1293;115231;-67
2023/02/12 01:36:14;;;;;;;31.00;18.60;;;;;;;5.77;82.33;101847.19;122219;1296;5457941;-67
2023/02/12 01:40:14;;;;;;;36.20;18.00;;;;;;;5.79;82.44;101853.75;124422;1329;114946;-67
2023/02/12 01:44:08;;;;;;;;;;;;;;;;;;;;;
2023/02/12 01:52:30;;;;;;;42.20;18.20;;;;;;;5.88;82.54;101860.26;125598;1303;636027;-65
2023/02/12 01:56:31;;;;;;;;;;;;;;;;;;;;;
2023/02/12 02:00:18;;;;;;;34.80;16.30;;;;;;;5.89;82.28;101865.91;126584;1307;115314;-66
2023/02/12 02:08:20;;;;;;;31.60;17.20;;;;;;;5.92;82.60;101866.44;124841;1325;114815;-66
2023/02/12 02:16:05;;;;;;;;;;;;;;;;;;;;;
2023/02/12 02:20:08;;;;;;;;;;;;;;;;;;;;;
2023/02/12 02:24:32;;;;;;;30.00;16.60;;;;;;;5.90;82.21;101878.67;124171;1315;115262;-66
2023/02/12 02:28:36;;;;;;;33.80;17.80;;;;;;;5.91;82.30;101890.56;124448;1329;114965;-66
2023/02/12 02:32:53;;;;;;;27.20;16.90;;;;;;;5.90;82.27;101900.31;123789;1318;129349;-66
2023/02/12 02:36:46;;;;;;;;;;;;;;;;;;;;;
2023/02/12 02:40:52;;;;;;;40.10;20.00;;;;;;;5.90;82.29;101898.53;124662;1323;115011;-66
2023/02/12 02:44:43;;;;;;;;;;;;;;;;;;;;;
2023/02/12 02:48:58;;;;;;;;;;;;;;;;;;;;;
2023/02/12 02:52:52;;;;;;;;;;;;;;;;;;;;;
2023/02/12 02:56:54;;;;;;;35.30;14.50;;;;;;;5.85;82.76;101924.46;125610;1311;115258;-66
2023/02/12 03:00:56;;;;;;;32.60;14.00;;;;;;;5.85;82.83;101921.09;125888;1316;114977;-66
2023/02/12 03:04:38;;;;;;;;;;;;;;;;;;;;;
2023/02/12 03:08:49;;;;;;;35.80;15.10;;;;;;;5.87;82.79;101924.27;125537;1304;114876;-65
2023/02/12 03:12:49;;;;;;;;;;;;;;;;;;;;;
2023/02/12 03:17:03;;;;;;;34.90;14.40;;;;;;;5.92;82.40;101939.14;124871;1309;115308;-66
2023/02/12 03:21:04;;;;;;;35.50;14.20;;;;;;;5.93;82.75;101944.46;124819;1327;115023;-66
2023/02/12 03:25:14;;;;;;;37.20;14.60;;;;;;;5.94;82.68;101944.29;124606;1325;114854;-66
2023/02/12 03:29:16;;;;;;;44.00;16.60;;;;;;;5.95;82.61;101950.48;124954;1325;115017;-67
2023/02/12 03:33:23;;;;;;;32.80;15.20;;;;;;;5.97;82.55;101954.73;124261;1319;128384;-66
2023/02/12 03:37:46;;;;;;;29.70;13.10;;;;;;;5.98;82.73;101960.57;124679;1309;116756;-66
2023/02/12 03:41:43;;;;;;;;;;;;;;;;;;;;;
2023/02/12 03:45:54;;;;;;;31.20;15.20;;;;;;;5.99;82.48;101970.88;124087;1331;115163;-66
2023/02/12 03:49:56;;;;;;;36.30;17.70;;;;;;;5.99;82.40;101977.95;124389;1325;115245;-66
2023/02/12 03:53:57;;;;;;;43.10;15.90;;;;;;;5.99;82.68;101981.49;124955;1323;129925;-66
2023/02/12 03:57:59;;;;;;;;;;;;;;;;;;;;;
2023/02/12 04:02:01;;;;;;;44.00;17.10;;;;;;;5.98;82.57;101993.55;124341;1328;114911;-66
2023/02/12 04:05:45;;;;;;;32.30;14.80;;;;;;;5.99;82.48;102001.02;123880;1333;114824;-66
2023/02/12 04:09:42;;;;;;;30.20;15.60;;;;;;;5.99;82.21;102006.88;123456;1333;115193;-66
2023/02/12 04:13:47;;;;;;;42.40;16.70;;;;;;;6.01;82.37;102017.35;124271;1328;130096;-66
2023/02/12 04:18:00;;;;;;;35.60;15.20;;;;;;;6.02;82.41;102016.81;124501;1309;115364;-66
2023/02/12 04:22:13;;;;;;;38.70;16.20;;;;;;;6.02;82.35;102023.55;124156;1315;115124;-66
2023/02/12 04:26:28;;;;;;;35.70;15.00;;;;;;;6.01;82.08;102022.49;124744;1325;115024;-66
2023/02/12 04:30:48;;;;;;;45.10;17.40;;;;;;;5.99;82.35;102028.16;124821;1306;114835;-66
2023/02/12 04:35:02;;;;;;;45.10;16.00;;;;;;;5.97;82.31;102035.25;125323;1314;130093;-66
2023/02/12 04:43:24;;;;;;;40.00;17.60;;;;;;;5.92;82.27;102042.71;125701;1298;114950;-66
2023/02/12 04:47:17;;;;;;;;;;;;;;;;;;;;;
2023/02/12 04:51:27;;;;;;;;;;;;;;;;;;;;;
2023/02/12 04:55:29;;;;;;;51.80;17.40;;;;;;;5.91;82.36;102062.21;124807;1304;129873;-66
2023/02/12 04:58:41;;;;;;;;;;;;;;;;;;;;;
2023/02/12 05:02:34;;;;;;;48.40;17.70;;;;;;;5.92;82.45;102063.64;124111;1329;114964;-66
2023/02/12 05:10:47;;;;;;;43.50;18.60;;;;;;;5.97;82.14;102076.58;126397;1295;636428;-66
2023/02/12 05:14:39;;;;;;;35.40;17.00;;;;;;;5.95;82.39;102082.26;128239;1281;129073;-66
2023/02/12 05:18:42;;;;;;;39.90;16.70;;;;;;;5.94;82.20;102082.78;127677;1273;115326;-66
2023/02/12 05:26:45;;;;;;;52.30;18.90;;;;;;;5.91;82.40;102087.40;121738;1305;115049;-66
2023/02/12 05:35:08;;;;;;;53.00;20.30;;;;;;;5.92;82.17;102096.27;126435;1303;635237;-66
2023/02/12 05:39:10;;;;;;;51.30;20.70;;;;;;;5.90;82.11;102102.64;127561;1280;128827;-66
2023/02/12 05:43:11;;;;;;;;;;;;;;;;;;;;;
2023/02/12 05:47:15;;;;;;;46.90;18.70;;;;;;;5.90;82.23;102105.84;122950;1308;5432007;-67
2023/02/12 05:51:18;;;;;;;52.40;17.40;;;;;;;5.91;82.29;102109.73;125727;1302;114890;-66
2023/02/12 05:55:09;;;;;;;;;;;;;;;;;;;;;
2023/02/12 05:59:02;;;;;;;;;;;;;;;;;;;;;
2023/02/12 06:03:08;;;;;;;49.00;22.10;;;;;;;5.91;82.20;102130.13;126377;1295;637635;-66
2023/02/12 06:07:10;;;;;;;55.50;21.20;;;;;;;5.88;82.09;102143.77;128318;1273;128269;-66
2023/02/12 06:11:00;;;;;;;;;;;;;;;;;;;;;
2023/02/12 06:15:32;;;;;;;54.70;19.70;;;;;;;5.87;82.26;102157.10;127264;1301;114856;-67
2023/02/12 06:18:57;;;;;;;53.40;18.00;;;;;;;5.85;82.19;102161.17;121632;1305;114868;-66
2023/02/12 06:22:55;;;;;;;48.10;19.50;;;;;;;5.85;82.15;102170.92;124920;1326;115002;-65
2023/02/12 06:31:09;;;;;;;42.10;17.80;;;;;;;5.87;81.99;102191.30;125459;1301;639897;-65
2023/02/12 06:35:14;;;;;;;44.00;18.10;;;;;;;5.86;82.09;102199.13;128543;1274;127887;-65
2023/02/12 06:38:45;;;;;;;;;;;;;;;;;;;;;
2023/02/12 06:42:38;;;;;;;47.90;18.90;;;;;;;5.85;82.37;102208.52;127022;1290;114944;-66
2023/02/12 06:46:40;;;;;;;37.80;17.40;;;;;;;5.84;82.05;102210.45;122668;1303;115069;-66
2023/02/12 06:50:34;;;;;;;39.00;17.20;;;;;;;5.84;82.18;102215.77;125516;1321;115035;-66
2023/02/12 06:54:29;;;;;;;46.70;18.80;;;;;;;5.86;82.03;102221.46;124375;1329;114946;-66
2023/02/12 06:58:19;;;;;;;40.10;17.90;;;;;;;5.87;82.28;102226.25;124571;1310;128818;-66
2023/02/12 07:02:08;;;;;;;;;;;;;;;;;;;;;
2023/02/12 07:09:27;;;;;;;46.40;21.70;;;;;;;5.97;82.07;102228.92;126331;1297;636187;-67
2023/02/12 07:13:33;;;;;;;50.80;21.10;;;;;;;5.97;82.15;102231.21;128925;1271;128853;-66
2023/02/12 07:17:35;;;;;;;44.80;21.30;;;;;;;5.98;82.07;102241.49;128405;1276;114933;-66
2023/02/12 07:21:26;;;;;;;54.60;27.70;;;;;;;6.02;82.20;102243.14;127669;1282;115026;-66
2023/02/12 07:24:58;;;;;;;47.90;19.40;;;;;;;6.07;82.10;102249.35;122518;1314;114945;-66
2023/02/12 07:29:00;;;;;;;49.00;19.00;;;;;;;6.06;82.00;102254.84;125436;1322;115034;-67
2023/02/12 07:32:58;;;;;;;46.80;20.20;;;;;;;6.07;81.93;102253.61;123632;1319;114910;-65
2023/02/12 07:36:13;;;;;;;41.30;18.60;;;;;;;6.10;82.23;102256.09;123092;1324;129863;-66
2023/02/12 07:43:54;;;;;;;55.10;23.20;;;;;;;6.26;82.31;102258.58;126461;1295;636259;-65
2023/02/12 07:47:44;;;;;;;;;;;;;;;;;;;;;
2023/02/12 07:51:34;;;;;;;;;;;;;;;;;;;;;
2023/02/12 07:54:38;;;;;;;42.90;17.90;;;;;;;6.45;81.76;102268.16;127388;1290;114936;-66
2023/02/12 07:58:05;;;;;;;40.30;17.10;;;;;;;6.49;81.58;102274.90;125613;1286;3040114;-66
2023/02/12 08:01:52;;;;;;;38.20;17.90;;;;;;;6.56;81.79;102283.25;127380;1286;114971;-66
2023/02/12 08:05:21;;;;;;;40.90;17.00;;;;;;;6.62;81.62;102285.38;127012;1288;127704;-66
2023/02/12 08:09:15;;;;;;;49.50;18.30;;;;;;;6.64;81.41;102295.66;126542;1312;115536;-65
2023/02/12 08:12:23;;;;;;;46.50;18.20;;;;;;;6.65;81.34;102295.13;125808;1317;114888;-66
2023/02/12 08:16:30;;;;;;;42.10;18.40;;;;;;;6.70;81.39;102298.33;125774;1317;115304;-66
2023/02/12 08:20:29;;;;;;;;;;;;;;;;;;;;;
2023/02/12 08:24:32;;;;;;;52.70;24.60;;;;;;;6.79;81.47;102301.50;125496;1301;129028;-66
2023/02/12 08:28:33;;;;;;;57.60;22.30;;;;;;;6.83;81.39;102299.90;125430;1302;115279;-66
2023/02/12 08:32:29;;;;;;;41.50;20.40;;;;;;;6.89;81.00;102307.70;124922;1325;115049;-66
2023/02/12 08:40:58;;;;;;;39.10;17.70;;;;;;;7.01;80.94;102311.23;125754;1299;636491;-66
2023/02/12 08:45:00;;;;;;;39.50;16.90;;;;;;;7.04;80.82;102314.79;127167;1287;128671;-66
2023/02/12 08:49:01;;;;;;;;;;;;;;;;;;;;;
2023/02/12 08:52:58;;;;;;;40.70;15.60;;;;;;;7.07;80.34;102312.47;121598;1297;5511113;-66
2023/02/12 08:56:41;;;;;;;45.80;19.30;;;;;;;7.15;80.53;102314.41;125350;1320;116479;-67
2023/02/12 09:00:43;;;;;;;63.30;28.70;;;;;;;7.26;80.78;102315.62;125385;1320;114958;-67
2023/02/12 09:04:33;;;;;;;;;;;;;;;;;;;;;
2023/02/12 09:08:35;;;;;;;48.90;25.40;;;;;;;7.46;80.42;102330.46;124658;1326;129669;-68
2023/02/12 09:12:25;;;;;;;;;;;;;;;;;;;;;
2023/02/12 09:16:24;;;;;;;;;;;;;;;;;;;;;
2023/02/12 09:20:46;;;;;;;52.00;22.30;;;;;;;7.81;80.31;102331.55;126381;1296;636896;-68
2023/02/12 09:24:48;;;;;;;54.70;25.00;;;;;;;7.89;80.10;102336.49;127672;1301;128962;-68
2023/02/12 09:28:50;;;;;;;48.60;21.20;;;;;;;8.03;80.18;102343.54;126572;1308;115483;-67
2023/02/12 09:32:42;;;;;;;43.10;17.00;;;;;;;8.18;79.91;102346.82;123284;1302;3175649;-66
2023/02/12 09:36:44;;;;;;;37.60;15.40;;;;;;;8.30;79.47;102353.52;125713;1318;114857;-67
2023/02/12 09:40:45;;;;;;;34.50;15.20;;;;;;;8.38;79.34;102351.67;124861;1318;115097;-67
2023/02/12 09:44:49;;;;;;;32.50;15.00;;;;;;;8.50;78.97;102353.56;124211;1321;114920;-67
2023/02/12 09:49:03;;;;;;;;;;;;;;;;;;;;;
2023/02/12 09:57:29;;;;;;;;;;;;;;;;;;;;;
2023/02/12 10:05:37;;;;;;;28.40;10.80;;;;;;;9.41;77.53;102364.11;128635;1276;115346;-67
2023/02/12 10:09:55;;;;;;;34.50;11.80;;;;;;;9.49;77.34;102357.25;123878;1282;5433431;-67
2023/02/12 10:14:04;;;;;;;33.80;14.40;;;;;;;9.68;77.21;102357.73;127289;1284;114763;-67
2023/02/12 10:18:23;;;;;;;36.00;12.30;;;;;;;9.75;76.64;102357.12;127218;1296;114804;-68
2023/02/12 10:22:34;;;;;;;30.20;13.40;;;;;;;9.72;75.95;102356.42;127306;1305;114913;-67
2023/02/12 10:26:26;;;;;;;38.30;14.50;;;;;;;9.72;75.98;102353.04;127273;1288;127839;-67
2023/02/12 10:30:30;;;;;;;32.10;14.80;;;;;;;9.72;75.90;102354.11;127235;1305;115253;-68
2023/02/12 10:34:32;;;;;;;37.20;16.10;;;;;;;9.78;75.93;102352.61;126363;1302;114936;-67
2023/02/12 10:38:36;;;;;;;32.40;15.00;;;;;;;9.89;75.96;102351.75;126599;1289;115011;-67
2023/02/12 10:42:43;;;;;;;32.40;14.10;;;;;;;9.99;75.76;102344.30;127401;1289;114928;-68
2023/02/12 10:46:46;;;;;;;31.00;13.40;;;;;;;10.04;74.93;102339.94;128262;1292;128932;-68
2023/02/12 10:50:53;;;;;;;42.50;18.00;;;;;;;9.95;74.42;102337.21;127683;1300;115263;-68
2023/02/12 10:54:56;;;;;;;37.40;15.20;;;;;;;9.84;74.06;102336.48;126969;1303;115045;-62
2023/02/12 10:59:00;;;;;;;41.10;17.10;;;;;;;9.85;74.28;102339.48;126138;1305;114955;-62
2023/02/12 11:03:07;;;;;;;40.10;14.80;;;;;;;9.90;74.05;102333.36;125648;1310;114914;-62
2023/02/12 11:07:12;;;;;;;36.40;17.20;;;;;;;10.05;74.19;102326.17;125340;1299;128768;-62
2023/02/12 11:11:13;;;;;;;32.60;12.20;;;;;;;10.19;73.95;102321.15;125533;1315;116475;-62
2023/02/12 11:15:17;;;;;;;29.70;11.70;;;;;;;10.28;73.58;102322.27;125878;1308;114973;-63
2023/02/12 11:19:04;;;;;;;;;;;;;;;;;;;;;
2023/02/12 11:23:07;;;;;;;25.70;11.60;;;;;;;10.47;73.42;102315.20;125287;1320;115012;-63
2023/02/12 11:27:08;;;;;;;36.70;13.50;;;;;;;10.57;72.93;102312.36;124855;1310;128503;-63
2023/02/12 11:31:12;;;;;;;27.50;11.20;;;;;;;10.63;72.81;102316.01;125492;1314;116927;-61
2023/02/12 11:35:17;;;;;;;25.80;10.80;;;;;;;10.73;72.51;102317.61;125680;1306;114807;-62
2023/02/12 11:39:29;;;;;;;25.70;10.20;;;;;;;10.84;72.29;102314.38;125978;1302;114809;-63
2023/02/12 11:43:28;;;;;;;;;;;;;;;;;;;;;
2023/02/12 11:47:22;;;;;;;22.30;8.50;;;;;;;11.02;71.63;102311.19;124703;1309;129742;-62
2023/02/12 11:51:21;;;;;;;22.30;8.20;;;;;;;11.04;70.90;102312.77;126208;1295;636609;-62
2023/02/12 11:55:19;;;;;;;;;;;;;;;;;;;;;
2023/02/12 12:03:23;;;;;;;;;;;;;;;;;;;;;
2023/02/12 12:07:22;;;;;;;26.50;8.90;;;;;;;10.73;69.68;102319.95;121931;1313;114865;-63
2023/02/12 12:11:20;;;;;;;14.80;5.80;;;;;;;10.58;69.32;102317.88;125386;1318;115081;-63
2023/02/12 12:24:01;;;;;;;22.60;8.50;;;;;;;10.50;69.66;102317.48;124553;1308;115559;-62
2023/02/12 12:32:28;;;;;;;21.50;9.40;;;;;;;10.55;68.36;102307.91;124587;1322;115021;-61
2023/02/12 12:36:34;;;;;;;;;;;;;;;;;;;;;
2023/02/12 12:40:50;;;;;;;17.00;7.30;;;;;;;10.42;68.14;102300.10;127135;1298;128617;-63
2023/02/12 12:45:19;;;;;;;22.90;8.40;;;;;;;10.39;68.34;102297.83;126254;1297;114923;-62
2023/02/12 12:49:30;;;;;;;;;;;;;;;;;;;;;
2023/02/12 12:53:47;;;;;;;37.70;19.10;;;;;;;10.56;68.80;102291.66;125620;1314;114856;-62
2023/02/12 12:57:41;;;;;;;24.70;10.60;;;;;;;10.67;68.31;102292.00;126531;1308;114978;-63
2023/02/12 13:01:43;;;;;;;26.70;8.90;;;;;;;10.74;68.39;102291.70;126688;1304;128237;-62
2023/02/12 13:05:36;;;;;;;;;;;;;;;;;;;;;
2023/02/12 13:09:39;;;;;;;19.20;8.70;;;;;;;10.67;67.38;102292.89;127314;1283;114974;-60
2023/02/12 13:13:48;;;;;;;29.90;16.00;;;;;;;10.70;67.20;102294.62;128057;1274;115290;-62
2023/02/12 13:17:59;;;;;;;24.90;8.90;;;;;;;10.66;67.07;102293.98;128363;1295;114934;-62
2023/02/12 13:22:08;;;;;;;;;;;;;;;;;;;;;
2023/02/12 13:26:29;;;;;;;;;;;;;;;;;;;;;
2023/02/12 13:30:33;;;;;;;15.30;5.90;;;;;;;10.82;66.35;102297.10;128744;1263;114940;-62
2023/02/12 13:34:37;;;;;;;16.20;5.00;;;;;;;10.78;65.98;102298.77;129121;1268;114966;-63
2023/02/12 13:38:41;;;;;;;15.10;5.20;;;;;;;10.72;65.54;102299.05;128528;1274;114812;-63
2023/02/12 13:42:44;;;;;;;21.30;10.00;;;;;;;10.69;65.64;102299.65;127847;1297;128972;-63
2023/02/12 13:46:55;;;;;;;18.00;6.30;;;;;;;10.63;65.69;102296.71;127246;1282;115397;-64
2023/02/12 13:51:00;;;;;;;;;;;;;;;;;;;;;
2023/02/12 13:55:08;;;;;;;;;;;;;;;;;;;;;
2023/02/12 13:59:12;;;;;;;20.10;8.30;;;;;;;10.36;65.61;102295.55;127701;1293;114987;-63
2023/02/12 14:03:13;;;;;;;17.80;6.90;;;;;;;10.25;65.80;102293.38;127959;1283;128963;-62
2023/02/12 14:07:16;;;;;;;21.20;8.60;;;;;;;10.22;66.15;102291.83;127869;1280;115405;-63
2023/02/12 14:11:24;;;;;;;30.20;10.90;;;;;;;10.21;66.53;102293.98;125940;1294;115073;-62
2023/02/12 14:15:29;;;;;;;;;;;;;;;;;;;;;
2023/02/12 14:23:43;;;;;;;17.60;7.60;;;;;;;10.12;66.27;102305.37;125789;1297;130081;-62
2023/02/12 14:27:43;;;;;;;;;;;;;;;;;;;;;
2023/02/12 14:31:57;;;;;;;29.10;11.30;;;;;;;9.97;65.96;102308.27;126111;1313;114907;-63
2023/02/12 14:36:14;;;;;;;27.70;10.40;;;;;;;9.86;66.14;102303.42;125749;1317;114969;-61
2023/02/12 14:40:22;;;;;;;34.10;12.20;;;;;;;9.81;65.85;102303.14;125198;1301;114977;-62
2023/02/12 14:44:29;;;;;;;;;;;;;;;;;;;;;
2023/02/12 14:48:49;;;;;;;21.90;8.50;;;;;;;9.73;66.16;102298.96;126307;1296;636128;-60
2023/02/12 14:53:08;;;;;;;;;;;;;;;;;;;;;
2023/02/12 14:57:13;;;;;;;25.00;10.50;;;;;;;9.64;66.16;102300.86;126623;1309;117251;-62
2023/02/12 15:01:35;;;;;;;26.80;11.30;;;;;;;9.62;66.18;102304.64;122150;1293;5670771;-63
2023/02/12 15:05:34;;;;;;;32.70;12.80;;;;;;;9.59;65.96;102306.66;125350;1322;114965;-64
2023/02/12 15:09:38;;;;;;;;;;;;;;;;;;;;;
2023/02/12 15:14:02;;;;;;;28.90;10.90;;;;;;;9.50;66.26;102306.76;124719;1311;129983;-63
2023/02/12 15:26:17;;;;;;;;;;;;;;;;;;;;;
2023/02/12 15:30:28;;;;;;;24.80;8.10;;;;;;;9.21;66.27;102311.92;128837;1268;114915;-62
2023/02/12 15:34:31;;;;;;;19.90;8.90;;;;;;;9.18;66.69;102321.05;124649;1277;5421819;-64
2023/02/12 15:38:33;;;;;;;;;;;;;;;;;;;;;
2023/02/12 15:42:36;;;;;;;22.70;9.40;;;;;;;9.04;66.83;102326.20;125545;1303;116514;-62
2023/02/12 15:46:31;;;;;;;34.90;11.80;;;;;;;8.98;67.15;102328.04;125846;1316;114942;-61
2023/02/12 15:50:36;;;;;;;32.80;12.90;;;;;;;8.91;67.00;102327.57;125282;1312;129723;-63
2023/02/12 15:54:36;;;;;;;35.70;14.50;;;;;;;8.83;67.04;102328.17;124877;1307;115250;-62
2023/02/12 16:06:29;;;;;;;;;;;;;;;;;;;;;
2023/02/12 16:10:26;;;;;;;37.50;16.20;;;;;;;8.54;67.27;102331.83;126849;1288;115347;-61
2023/02/12 16:18:34;;;;;;;31.80;15.30;;;;;;;8.37;67.59;102343.48;121996;1308;114977;-65
2023/02/12 16:22:47;;;;;;;30.40;14.30;;;;;;;8.28;67.54;102343.39;124819;1320;114981;-67
2023/02/12 16:26:42;;;;;;;;;;;;;;;;;;;;;
2023/02/12 16:31:00;;;;;;;;;;;;;;;;;;;;;
2023/02/12 16:35:05;;;;;;;22.70;9.00;;;;;;;7.97;68.37;102355.86;124574;1310;116465;-67
2023/02/12 16:43:51;;;;;;;22.50;10.90;;;;;;;7.79;68.68;102346.16;126051;1298;636287;-68
2023/02/12 16:47:53;;;;;;;25.30;11.00;;;;;;;7.70;69.07;102353.49;127963;1292;128868;-67
2023/02/12 16:51:54;;;;;;;;;;;;;;;;;;;;;
2023/02/12 16:55:56;;;;;;;;;;;;;;;;;;;;;
2023/02/12 16:59:54;;;;;;;34.70;16.60;;;;;;;7.49;69.40;102355.89;127137;1286;114854;-69
2023/02/12 17:03:56;;;;;;;;;;;;;;;;;;;;;
2023/02/12 17:07:42;;;;;;;28.90;12.70;;;;;;;7.32;69.13;102361.63;125065;1320;114954;-72
2023/02/12 17:11:45;;;;;;;35.80;13.70;;;;;;;7.24;69.10;102366.81;124529;1313;130533;-70
2023/02/12 17:15:44;;;;;;;;;;;;;;;;;;;;;
2023/02/12 17:20:17;;;;;;;36.40;18.30;;;;;;;6.98;69.15;102370.59;125389;1303;638588;-74
2023/02/12 17:24:20;;;;;;;50.60;26.40;;;;;;;6.83;69.42;102373.79;127815;1276;127976;-76
2023/02/12 17:28:23;;;;;;;31.50;15.30;;;;;;;6.74;69.48;102373.78;126924;1286;115496;-70
2023/02/12 17:32:28;;;;;;;30.90;14.60;;;;;;;6.64;69.35;102378.59;122028;1293;5595713;-65
2023/02/12 17:36:11;;;;;;;;;;;;;;;;;;;;;
2023/02/12 17:40:06;;;;;;;30.30;13.20;;;;;;;6.53;69.38;102371.30;124491;1329;114890;-65
2023/02/12 17:43:58;;;;;;;;;;;;;;;;;;;;;
2023/02/12 17:48:12;;;;;;;31.00;14.40;;;;;;;6.52;69.69;102376.98;126297;1293;635653;-66
2023/02/12 17:52:09;;;;;;;31.90;15.00;;;;;;;6.50;69.66;102374.14;128246;1279;128402;-66
2023/02/12 17:56:13;;;;;;;37.00;17.40;;;;;;;6.49;69.87;102373.42;126893;1304;114948;-66
2023/02/12 18:00:17;;;;;;;34.30;17.60;;;;;;;6.50;69.67;102376.97;122626;1292;5406848;-65
2023/02/12 18:04:19;;;;;;;32.50;15.80;;;;;;;6.49;69.84;102375.02;125430;1313;114941;-64
2023/02/12 18:08:05;;;;;;;;;;;;;;;;;;;;;
2023/02/12 18:16:17;;;;;;;39.50;20.60;;;;;;;6.56;69.99;102370.94;126230;1297;636747;-64
2023/02/12 18:19:51;;;;;;;40.70;20.10;;;;;;;6.54;70.25;102371.46;127973;1294;129009;-66
2023/02/12 18:23:56;;;;;;;36.30;19.10;;;;;;;6.55;70.22;102366.14;126947;1292;115034;-65
2023/02/12 18:27:50;;;;;;;44.40;22.90;;;;;;;6.55;70.37;102364.91;126372;1309;115016;-65
2023/02/12 18:31:39;;;;;;;;;;;;;;;;;;;;;
2023/02/12 18:35:43;;;;;;;41.00;20.90;;;;;;;6.56;70.58;102369.00;125650;1312;114970;-64
2023/02/12 18:39:34;;;;;;;;;;;;;;;;;;;;;
2023/02/12 18:43:35;;;;;;;;;;;;;;;;;;;;;
2023/02/12 18:56:05;;;;;;;;;;;;;;;;;;;;;
2023/02/12 19:00:09;;;;;;;41.40;18.70;;;;;;;6.53;70.93;102353.37;126653;1302;115407;-65
2023/02/12 19:03:59;;;;;;;42.20;18.70;;;;;;;6.53;71.07;102355.67;121827;1298;5374501;-64
2023/02/12 19:07:52;;;;;;;;;;;;;;;;;;;;;
2023/02/12 19:11:46;;;;;;;;;;;;;;;;;;;;;
2023/02/12 19:20:02;;;;;;;38.10;20.20;;;;;;;6.55;71.34;102358.51;126670;1296;635811;-66
2023/02/12 19:24:05;;;;;;;42.70;20.70;;;;;;;6.54;71.46;102360.82;129019;1273;128852;-65
2023/02/12 19:28:08;;;;;;;43.80;21.00;;;;;;;6.54;71.54;102364.72;128013;1282;115248;-66
2023/02/12 19:32:16;;;;;;;41.20;19.50;;;;;;;6.54;71.72;102364.71;122269;1293;5441527;-66
2023/02/12 19:36:17;;;;;;;34.20;16.70;;;;;;;6.56;71.87;102365.61;125596;1301;114849;-66
2023/02/12 19:40:08;;;;;;;33.50;17.00;;;;;;;6.56;71.65;102363.13;125667;1318;115260;-65
2023/02/12 19:44:02;;;;;;;;;;;;;;;;;;;;;
2023/02/12 19:48:27;;;;;;;43.70;18.30;;;;;;;6.60;72.02;102359.40;126220;1305;636725;-66
2023/02/12 19:52:21;;;;;;;;;;;;;;;;;;;;;
2023/02/12 19:56:09;;;;;;;49.60;21.10;;;;;;;6.59;72.40;102363.49;126539;1295;114826;-67
2023/02/12 20:00:18;;;;;;;46.90;19.20;;;;;;;6.59;72.39;102365.97;125537;1296;5550904;-67
2023/02/12 20:04:20;;;;;;;36.70;14.40;;;;;;;6.59;72.56;102367.58;124958;1328;114986;-66
2023/02/12 20:12:47;;;;;;;50.00;25.10;;;;;;;6.64;72.83;102371.30;126302;1299;635990;-66
2023/02/12 20:20:50;;;;;;;45.30;23.30;;;;;;;6.61;73.07;102368.64;127594;1301;115425;-66
2023/02/12 20:24:52;;;;;;;;;;;;;;;;;;;;;
2023/02/12 20:28:55;;;;;;;49.70;23.10;;;;;;;6.58;73.51;102369.17;125681;1314;114976;-65
2023/02/12 20:32:43;;;;;;;48.30;21.70;;;;;;;6.54;73.68;102367.55;124771;1329;114962;-65
2023/02/12 20:36:35;;;;;;;;;;;;;;;;;;;;;
2023/02/12 20:41:05;;;;;;;50.50;21.50;;;;;;;6.52;74.24;102370.06;125632;1307;640131;-64
2023/02/12 20:45:08;;;;;;;44.40;21.40;;;;;;;6.48;74.46;102374.31;127628;1281;128750;-66
2023/02/12 20:49:07;;;;;;;43.60;21.00;;;;;;;6.45;74.72;102375.55;126484;1300;115383;-66
2023/02/12 20:53:09;;;;;;;;;;;;;;;;;;;;;
2023/02/12 20:57:11;;;;;;;45.80;22.10;;;;;;;6.42;75.01;102376.26;124642;1325;114939;-66
2023/02/12 21:09:22;;;;;;;46.60;21.70;;;;;;;6.34;75.69;102376.77;128287;1278;127863;-67
2023/02/12 21:13:04;;;;;;;;;;;;;;;6.31;75.75;102378.38;128116;1275;114793;-65
2023/02/12 21:17:19;;;;;;;61.70;23.20;;;;;;;6.28;75.84;102381.21;128372;1280;114915;-66
2023/02/12 21:21:20;;;;;;;46.80;21.50;;;;;;;6.24;76.04;102380.66;124413;1290;114921;-65
2023/02/12 21:25:11;;;;;;;41.10;20.60;;;;;;;6.24;76.28;102382.43;127402;1287;114922;-66
2023/02/12 21:29:16;;;;;;;44.70;22.30;;;;;;;6.23;76.34;102381.90;126597;1293;114769;-66
2023/02/12 21:33:15;;;;;;;57.20;23.70;;;;;;;6.23;76.55;102380.48;126068;1297;129891;-66
2023/02/12 21:37:11;;;;;;;;;;;;;;;;;;;;;
2023/02/12 21:41:14;;;;;;;62.30;26.10;;;;;;;6.24;76.69;102365.58;125393;1316;114858;-66
2023/02/12 21:45:14;;;;;;;58.90;26.90;;;;;;;6.25;76.88;102367.36;124508;1327;114941;-67
2023/02/12 21:53:29;;;;;;;58.70;25.10;;;;;;;6.26;76.90;102362.57;126325;1297;636210;-67
2023/02/12 21:57:27;;;;;;;;;;;;;;;;;;;;;
2023/02/12 22:01:32;;;;;;;53.20;22.80;;;;;;;6.27;77.18;102367.19;126558;1290;115419;-67
2023/02/12 22:05:36;;;;;;;50.50;22.30;;;;;;;6.27;77.31;102364.89;121909;1317;5453461;-67
2023/02/12 22:09:37;;;;;;;40.50;20.50;;;;;;;6.27;77.33;102371.09;125403;1304;114984;-67
2023/02/12 22:17:59;;;;;;;38.00;19.70;;;;;;;6.28;77.38;102372.51;126315;1297;635992;-68
2023/02/12 22:22:01;;;;;;;46.10;20.50;;;;;;;6.25;77.59;102374.10;127969;1284;127398;-67
2023/02/12 22:26:03;;;;;;;43.00;21.60;;;;;;;6.23;77.52;102369.84;126695;1300;115273;-66
2023/02/12 22:30:07;;;;;;;50.00;23.80;;;;;;;6.22;77.45;102368.05;121794;1318;5440625;-67
2023/02/12 22:34:09;;;;;;;46.40;22.50;;;;;;;6.21;77.72;102372.67;125110;1325;114921;-66
2023/02/12 22:38:04;;;;;;;44.50;21.40;;;;;;;6.19;77.63;102373.20;124469;1321;114824;-66
2023/02/12 22:46:14;;;;;;;;;;;;;;;;;;;;;
2023/02/12 22:50:17;;;;;;;54.90;25.50;;;;;;;6.13;77.83;102369.80;128911;1270;128891;-66
2023/02/12 22:54:11;;;;;;;;;;;;;;;;;;;;;
2023/02/12 22:58:15;;;;;;;50.70;21.30;;;;;;;6.07;77.90;102369.27;123924;1284;5384264;-66
2023/02/12 23:02:18;;;;;;;44.20;20.60;;;;;;;6.06;78.17;102369.45;125811;1317;114926;-67
2023/02/12 23:06:12;;;;;;;51.50;22.20;;;;;;;6.04;78.10;102369.44;124770;1310;114917;-67
2023/02/12 23:10:14;;;;;;;47.50;22.00;;;;;;;6.02;78.30;102372.27;124384;1329;129883;-66
2023/02/12 23:14:12;;;;;;;;;;;;;;;;;;;;;
2023/02/12 23:22:34;;;;;;;49.70;19.20;;;;;;;5.97;78.29;102366.73;126467;1292;636041;-66
2023/02/12 23:26:29;;;;;;;42.20;18.10;;;;;;;5.92;78.49;102365.29;127599;1281;127932;-66
2023/02/12 23:30:31;;;;;;;35.60;19.40;;;;;;;5.90;78.41;102362.45;127397;1287;115386;-66
2023/02/12 23:34:34;;;;;;;41.80;19.40;;;;;;;5.89;78.59;102359.23;122043;1295;5431869;-67